Time;durP1;ratioP1;P1;durP2;ratioP2;P2;SDS_P1;SDS_P2;PMS_P1;PMS_P2;Temp;Humidity;BMP_temperature;BMP_pressure;BME280_temperature;BME280_humidity;BME280_pressure;Samples;Min_cycle;Max_cycle;Signal;HPM_P1;HPM_P2
2022/08/25 00:04:34;;;;;;;4.40;4.10;;;22.80;78.60;;;;;;10519178;28;20248;-80
2022/08/25 00:09:36;;;;;;;4.17;3.97;;;22.90;78.80;;;;;;10550637;28;20257;-80
2022/08/25 00:14:38;;;;;;;4.10;3.90;;;22.80;79.10;;;;;;10531683;28;20220;-80
2022/08/25 00:19:41;;;;;;;4.27;4.07;;;22.70;79.70;;;;;;10530443;28;20212;-80
2022/08/25 00:24:43;;;;;;;4.37;4.07;;;22.70;79.40;;;;;;10525848;28;20223;-80
2022/08/25 00:29:45;;;;;;;4.53;4.33;;;22.70;79.40;;;;;;10537335;28;20224;-78
2022/08/25 00:34:49;;;;;;;4.67;4.37;;;22.60;79.80;;;;;;10516891;28;20212;-80
2022/08/25 00:39:51;;;;;;;4.03;3.83;;;22.60;80.10;;;;;;10533637;28;20287;-80
2022/08/25 00:44:53;;;;;;;4.13;3.93;;;22.50;80.30;;;;;;10536708;28;20196;-79
2022/08/25 00:50:00;;;;;;;6.80;4.50;;;22.50;80.40;;;;;;10552318;28;20722;-80
2022/08/25 00:55:05;;;;;;;4.63;4.33;;;22.40;81.10;;;;;;10518829;28;20748;-80
2022/08/25 01:00:18;;;;;;;5.00;4.70;;;22.40;80.60;;;;;;10504422;28;20433;-80
2022/08/25 01:05:22;;;;;;;5.10;4.80;;;22.40;80.90;;;;;;10526724;28;20219;-80
2022/08/25 01:10:25;;;;;;;5.80;5.37;;;22.30;80.70;;;;;;10540191;28;20215;-79
2022/08/25 01:15:28;;;;;;;5.30;5.00;;;22.20;81.10;;;;;;10505673;28;20616;-78
2022/08/25 01:20:33;;;;;;;5.20;4.90;;;22.20;81.20;;;;;;10541276;28;20215;-79
2022/08/25 01:25:50;;;;;;;5.20;4.73;;;22.10;81.80;;;;;;10494348;28;20201;-80
2022/08/25 01:30:52;;;;;;;5.27;4.97;;;22.10;81.60;;;;;;10543047;22;20228;-81
2022/08/25 01:35:55;;;;;;;5.33;4.90;;;22.00;81.70;;;;;;10506643;28;20219;-81
2022/08/25 01:40:58;;;;;;;5.83;5.33;;;21.90;82.20;;;;;;10462445;28;20416;-81
2022/08/25 01:46:00;;;;;;;5.60;5.20;;;21.90;82.30;;;;;;10452944;28;20201;-81
2022/08/25 01:51:02;;;;;;;5.70;5.40;;;21.90;82.60;;;;;;10436316;28;20300;-80
2022/08/25 01:56:12;;;;;;;5.60;5.30;;;21.80;82.60;;;;;;10466572;28;20236;-81
2022/08/25 02:01:17;;;;;;;5.63;5.33;;;21.80;83.00;;;;;;10465555;28;20223;-80
2022/08/25 02:06:22;;;;;;;5.47;5.00;;;21.70;83.10;;;;;;10452121;28;20224;-81
2022/08/25 02:11:25;;;;;;;9.47;5.60;;;21.70;83.30;;;;;;10467283;28;20247;-81
2022/08/25 02:16:30;;;;;;;5.50;5.10;;;21.70;83.40;;;;;;10436058;28;20221;-80
2022/08/25 02:21:34;;;;;;;6.07;5.67;;;21.70;83.70;;;;;;10452168;28;20220;-80
2022/08/25 02:26:37;;;;;;;5.67;5.17;;;21.70;84.70;;;;;;10498242;28;20284;-80
2022/08/25 02:31:40;;;;;;;6.80;6.07;;;21.60;84.10;;;;;;10481787;28;20595;-81
2022/08/25 02:36:43;;;;;;;6.23;5.80;;;21.60;84.30;;;;;;10456861;28;20213;-81
2022/08/25 02:41:46;;;;;;;5.83;5.43;;;21.60;84.60;;;;;;10452297;28;20588;-81
2022/08/25 02:46:51;;;;;;;6.27;5.87;;;21.60;83.90;;;;;;10457482;28;20193;-80
2022/08/25 02:51:54;;;;;;;6.97;6.37;;;21.50;84.30;;;;;;10469482;28;20244;-80
2022/08/25 02:56:57;;;;;;;7.27;6.87;;;21.40;84.70;;;;;;10456120;28;20225;-81
2022/08/25 03:01:59;;;;;;;6.53;6.13;;;21.30;85.10;;;;;;10468730;28;20343;-81
2022/08/25 03:07:02;;;;;;;7.03;6.53;;;21.30;85.20;;;;;;10441244;28;20197;-81
2022/08/25 03:12:07;;;;;;;5.47;5.10;;;21.20;85.70;;;;;;10468311;28;20216;-81
2022/08/25 03:17:10;;;;;;;7.87;7.27;;;21.20;85.60;;;;;;10442822;28;20197;-81
2022/08/25 03:22:12;;;;;;;6.53;6.13;;;21.20;85.90;;;;;;10492029;28;20659;-80
2022/08/25 03:27:15;;;;;;;6.80;6.20;;;21.10;86.20;;;;;;10508651;28;20228;-81
2022/08/25 03:32:17;;;;;;;6.80;6.30;;;21.10;85.70;;;;;;10467215;28;20311;-81
2022/08/25 03:37:19;;;;;;;7.00;6.50;;;21.10;86.00;;;;;;10488587;28;20192;-81
2022/08/25 03:42:25;;;;;;;7.87;7.37;;;21.10;85.80;;;;;;10463381;28;20677;-81
2022/08/25 03:47:28;;;;;;;6.27;5.87;;;21.00;85.90;;;;;;10454194;28;20204;-80
2022/08/25 03:52:30;;;;;;;6.37;5.87;;;21.00;86.10;;;;;;10465488;28;20217;-81
2022/08/25 03:57:33;;;;;;;7.70;7.20;;;21.00;86.00;;;;;;10475671;28;20201;-80
2022/08/25 04:02:36;;;;;;;6.90;6.30;;;21.00;86.20;;;;;;10465952;28;20221;-80
2022/08/25 04:07:38;;;;;;;7.77;7.27;;;20.90;86.60;;;;;;10482869;28;20635;-80
2022/08/25 04:12:41;;;;;;;7.37;6.77;;;21.00;86.70;;;;;;10460692;28;20209;-80
2022/08/25 04:17:44;;;;;;;7.10;6.70;;;21.00;86.70;;;;;;10481419;28;20282;-80
2022/08/25 04:22:46;;;;;;;7.30;6.80;;;20.90;86.60;;;;;;10451814;28;20567;-81
2022/08/25 04:27:50;;;;;;;7.40;6.80;;;20.90;87.10;;;;;;10504104;28;20663;-81
2022/08/25 04:32:52;;;;;;;8.20;7.70;;;20.90;87.30;;;;;;10481560;28;20225;-81
2022/08/25 04:37:54;;;;;;;7.77;7.20;;;21.00;86.70;;;;;;10448171;28;20288;-80
2022/08/25 04:42:57;;;;;;;8.07;7.57;;;20.90;87.10;;;;;;10486606;28;20575;-81
2022/08/25 04:48:00;;;;;;;7.47;6.97;;;20.90;87.00;;;;;;10483558;28;20226;-81
2022/08/25 04:53:02;;;;;;;8.23;7.73;;;20.80;87.60;;;;;;10482719;28;20259;-81
2022/08/25 04:58:05;;;;;;;5.83;5.43;;;20.80;88.20;;;;;;10500354;28;20543;-83
2022/08/25 05:03:08;;;;;;;8.47;7.93;;;20.80;88.30;;;;;;10466398;28;20224;-81
2022/08/25 05:08:10;;;;;;;8.13;7.63;;;20.80;87.80;;;;;;10460277;28;20193;-82
2022/08/25 05:13:13;;;;;;;7.90;7.30;;;20.90;88.70;;;;;;10465765;28;20268;-82
2022/08/25 05:18:16;;;;;;;8.20;7.70;;;20.90;88.50;;;;;;10485227;28;20684;-82
2022/08/25 05:23:19;;;;;;;8.53;7.93;;;20.90;88.30;;;;;;10459100;28;20215;-81
2022/08/25 05:28:23;;;;;;;8.80;8.20;;;21.00;88.30;;;;;;10475412;28;20258;-82
2022/08/25 05:33:25;;;;;;;7.53;7.00;;;21.00;87.90;;;;;;10471989;28;20235;-82
2022/08/25 05:38:27;;;;;;;7.90;7.20;;;21.00;87.90;;;;;;10472813;28;20232;-82
2022/08/25 05:43:32;;;;;;;8.20;7.50;;;21.00;88.60;;;;;;10447328;28;20217;-81
2022/08/25 05:48:35;;;;;;;9.53;8.03;;;21.00;88.60;;;;;;10476394;28;20208;-81
2022/08/25 05:53:38;;;;;;;7.90;7.40;;;21.00;88.50;;;;;;10454587;28;20209;-81
2022/08/25 05:58:42;;;;;;;6.50;6.00;;;21.00;88.60;;;;;;10481102;28;20199;-81
2022/08/25 06:03:45;;;;;;;9.33;8.63;;;21.10;88.50;;;;;;10481867;28;20220;-82
2022/08/25 06:08:55;;;;;;;9.17;8.57;;;21.20;88.50;;;;;;10640533;27;20590;-82
2022/08/25 06:13:57;;;;;;;8.63;7.93;;;21.20;88.70;;;;;;10647678;28;20274;-82
2022/08/25 06:19:00;;;;;;;8.80;7.50;;;21.20;88.30;;;;;;10630707;27;20201;-82
2022/08/25 06:24:04;;;;;;;9.50;8.80;;;21.30;88.50;;;;;;10626382;27;20229;-82
2022/08/25 06:29:06;;;;;;;8.87;8.03;;;21.40;88.30;;;;;;10608849;27;20191;-82
2022/08/25 06:34:09;;;;;;;10.93;9.90;;;21.40;88.40;;;;;;10613884;28;20782;-82
2022/08/25 06:39:12;;;;;;;9.80;9.10;;;21.50;88.60;;;;;;10614164;28;20190;-82
2022/08/25 06:44:14;;;;;;;9.93;9.23;;;21.60;88.40;;;;;;10613661;28;20269;-82
2022/08/25 06:49:20;;;;;;;10.43;9.53;;;21.60;88.30;;;;;;10609900;27;20197;-82
2022/08/25 06:54:24;;;;;;;10.07;9.17;;;21.70;88.40;;;;;;10605559;27;20192;-82
2022/08/25 06:59:27;;;;;;;10.47;8.93;;;21.80;87.90;;;;;;10583334;28;20203;-82
2022/08/25 07:04:33;;;;;;;9.70;8.90;;;21.90;88.20;;;;;;10626501;27;20253;-82
2022/08/25 07:09:36;;;;;;;10.73;9.90;;;22.00;88.60;;;;;;10627575;27;20217;-82
2022/08/25 07:14:39;;;;;;;9.93;9.00;;;22.10;87.70;;;;;;10625747;27;20193;-82
2022/08/25 07:19:41;;;;;;;9.80;8.90;;;22.20;88.40;;;;;;10599656;28;20280;-82
2022/08/25 07:24:45;;;;;;;9.67;8.90;;;22.20;88.00;;;;;;10572765;28;20258;-82
2022/08/25 07:29:48;;;;;;;11.07;10.27;;;22.30;88.00;;;;;;10580129;22;20242;-81
2022/08/25 07:40:16;;;;;;;10.87;9.77;;;22.60;87.50;;;;;;10459969;28;20212;-82
2022/08/25 07:45:20;;;;;;;10.10;9.40;;;22.70;87.70;;;;;;10447743;28;20210;-79
2022/08/25 07:50:23;;;;;;;9.07;8.37;;;22.90;87.10;;;;;;10436375;28;20295;-82
2022/08/25 07:55:29;;;;;;;9.27;8.50;;;23.10;86.10;;;;;;10461966;28;20229;-82
2022/08/25 08:00:32;;;;;;;10.13;9.53;;;23.30;85.50;;;;;;10457545;28;20655;-82
2022/08/25 08:05:36;;;;;;;10.23;9.53;;;23.60;84.50;;;;;;10432900;28;20217;-80
2022/08/25 08:10:40;;;;;;;9.83;9.13;;;23.80;83.80;;;;;;10448410;28;20505;-82
2022/08/25 08:15:43;;;;;;;9.97;9.23;;;24.10;83.90;;;;;;10434526;28;20189;-81
2022/08/25 08:20:47;;;;;;;10.40;9.70;;;24.30;82.40;;;;;;10449787;28;20305;-82
2022/08/25 08:25:50;;;;;;;10.27;9.57;;;24.40;82.30;;;;;;10433677;28;20661;-82
2022/08/25 08:30:52;;;;;;;9.30;8.70;;;24.60;81.40;;;;;;10445768;28;20684;-82
2022/08/25 08:35:59;;;;;;;10.30;9.40;;;24.70;81.70;;;;;;10433594;28;20595;-80
2022/08/25 08:46:49;;;;;;;9.80;9.10;;;24.90;81.00;;;;;;10435417;28;20411;-81
2022/08/25 08:51:58;;;;;;;13.33;12.33;;;25.10;79.30;;;;;;10440051;28;20281;-80
2022/08/25 08:57:09;;;;;;;10.20;8.70;;;25.20;79.80;;;;;;10436339;28;20284;-81
2022/08/25 09:02:22;;;;;;;9.53;8.93;;;25.30;79.40;;;;;;10440136;28;20217;-81
2022/08/25 09:07:33;;;;;;;10.93;9.17;;;25.40;77.70;;;;;;10420590;28;20225;-81
2022/08/25 09:12:41;;;;;;;9.47;8.90;;;25.40;78.20;;;;;;10421487;28;20275;-80
2022/08/25 09:18:04;;;;;;;9.37;8.70;;;25.50;77.70;;;;;;10438477;28;20189;-79
2022/08/25 09:23:20;;;;;;;11.90;10.90;;;25.50;76.60;;;;;;10444390;28;20232;-81
2022/08/25 09:28:30;;;;;;;9.60;8.90;;;25.60;77.30;;;;;;10432084;28;20294;-80
2022/08/25 09:33:33;;;;;;;7.60;6.80;;;25.60;77.40;;;;;;10434410;28;20236;-80
2022/08/25 09:38:36;;;;;;;10.47;9.77;;;25.90;76.00;;;;;;10444650;28;20193;-80
2022/08/25 09:43:42;;;;;;;8.77;8.17;;;26.20;76.60;;;;;;10434031;28;20224;-80
2022/08/25 09:48:47;;;;;;;8.37;7.80;;;26.50;74.60;;;;;;10444383;28;20217;-79
2022/08/25 09:53:53;;;;;;;8.90;8.30;;;26.80;73.30;;;;;;10435258;28;20611;-80
2022/08/25 09:59:22;;;;;;;7.60;7.10;;;27.20;73.00;;;;;;10440763;28;20588;-81
2022/08/25 10:04:26;;;;;;;9.00;8.30;;;27.60;71.10;;;;;;10447523;28;20228;-81
2022/08/25 10:09:34;;;;;;;7.70;7.20;;;27.90;70.00;;;;;;10427512;28;20276;-82
2022/08/25 10:14:39;;;;;;;8.50;7.80;;;28.20;70.00;;;;;;10445486;28;20724;-81
2022/08/25 10:19:42;;;;;;;6.93;6.50;;;28.30;68.30;;;;;;10425874;28;20607;-82
2022/08/25 10:24:44;;;;;;;9.13;8.40;;;28.10;69.20;;;;;;10434743;28;20217;-82
2022/08/25 10:30:14;;;;;;;8.20;7.70;;;27.90;68.30;;;;;;10442589;28;20186;-81
2022/08/25 10:35:20;;;;;;;8.20;7.70;;;27.70;68.20;;;;;;10435968;28;20186;-80
2022/08/25 10:40:31;;;;;;;8.43;7.83;;;27.40;69.30;;;;;;10448896;28;20217;-79
2022/08/25 10:45:43;;;;;;;7.43;6.93;;;27.30;69.20;;;;;;10423583;28;20221;-79
2022/08/25 10:50:51;;;;;;;8.43;7.93;;;27.10;69.80;;;;;;10448808;28;20224;-79
2022/08/25 10:56:12;;;;;;;8.60;8.00;;;27.00;70.10;;;;;;10433536;28;20281;-80
2022/08/25 11:01:24;;;;;;;7.83;7.33;;;26.90;70.70;;;;;;10433983;28;20689;-80
2022/08/25 11:06:37;;;;;;;7.97;7.57;;;26.90;70.10;;;;;;10421212;28;20206;-80
2022/08/25 11:11:48;;;;;;;8.50;7.87;;;26.90;70.10;;;;;;10460470;28;20225;-80
2022/08/25 11:16:58;;;;;;;7.43;6.93;;;26.90;68.90;;;;;;10422845;28;20198;-80
2022/08/25 11:22:07;;;;;;;8.40;7.80;;;26.80;69.90;;;;;;10460938;28;20213;-80
2022/08/25 11:27:16;;;;;;;7.67;7.17;;;26.70;69.10;;;;;;10420337;28;20546;-80
2022/08/25 11:32:23;;;;;;;7.10;6.70;;;26.80;67.90;;;;;;10382410;28;20720;-80
2022/08/25 11:37:28;;;;;;;6.60;6.20;;;26.80;69.40;;;;;;10381228;28;20604;-81
2022/08/25 11:42:44;;;;;;;7.00;6.50;;;26.90;67.10;;;;;;10384608;28;20582;-82
2022/08/25 11:48:00;;;;;;;6.40;6.10;;;26.90;68.80;;;;;;10385057;28;20218;-81
2022/08/25 11:53:21;;;;;;;7.07;6.57;;;26.90;67.80;;;;;;10460403;28;20220;-80
2022/08/25 11:58:39;;;;;;;5.40;5.10;;;26.90;67.10;;;;;;10424194;28;20208;-81
2022/08/25 12:04:14;;;;;;;6.63;6.23;;;26.90;65.50;;;;;;10446246;28;20218;-81
2022/08/25 12:09:19;;;;;;;5.77;5.30;;;26.90;65.70;;;;;;10427275;28;20225;-81
2022/08/25 12:14:45;;;;;;;7.10;6.70;;;26.90;64.60;;;;;;10451757;28;20264;-80
2022/08/25 12:19:53;;;;;;;6.30;5.90;;;26.90;65.00;;;;;;10429213;28;20271;-81
2022/08/25 12:25:02;;;;;;;7.30;6.90;;;26.90;67.00;;;;;;10429430;28;20213;-81
2022/08/25 12:30:13;;;;;;;7.33;6.93;;;26.80;66.80;;;;;;10442593;28;20708;-81
2022/08/25 12:35:29;;;;;;;7.07;6.67;;;26.80;67.30;;;;;;10445397;28;20198;-81
2022/08/25 12:40:35;;;;;;;7.83;7.33;;;26.80;67.70;;;;;;10434820;28;20220;-81
2022/08/25 12:45:43;;;;;;;7.93;7.43;;;26.70;68.90;;;;;;10446974;28;20209;-81
2022/08/25 12:50:49;;;;;;;6.50;6.10;;;26.70;68.70;;;;;;10435718;28;20239;-81
2022/08/25 12:55:57;;;;;;;7.90;7.20;;;26.70;67.90;;;;;;10459262;28;20193;-81
2022/08/25 13:01:14;;;;;;;6.83;6.23;;;26.70;66.70;;;;;;10440177;28;20720;-81
2022/08/25 13:06:37;;;;;;;7.20;6.70;;;26.70;66.40;;;;;;10437307;28;20213;-80
2022/08/25 13:11:45;;;;;;;6.57;6.27;;;26.70;66.40;;;;;;10434798;28;20269;-81
2022/08/25 13:16:59;;;;;;;6.70;6.30;;;26.70;66.70;;;;;;10440113;28;20204;-81
2022/08/25 13:22:09;;;;;;;6.40;6.03;;;26.70;64.90;;;;;;10434934;28;20701;-81
2022/08/25 13:27:21;;;;;;;4.90;4.60;;;26.70;66.00;;;;;;10424221;28;20228;-81
2022/08/25 13:32:29;;;;;;;6.73;6.33;;;26.80;66.30;;;;;;10446249;28;20278;-78
2022/08/25 13:37:32;;;;;;;6.57;6.10;;;26.80;64.70;;;;;;10430238;28;20248;-79
2022/08/25 13:42:35;;;;;;;7.03;6.63;;;26.90;65.20;;;;;;10441936;28;20228;-79
2022/08/25 13:47:39;;;;;;;6.50;6.10;;;27.00;65.80;;;;;;10427958;28;20221;-79
2022/08/25 13:52:48;;;;;;;6.87;6.47;;;27.00;66.00;;;;;;10438882;28;20216;-79
2022/08/25 13:57:50;;;;;;;6.13;5.83;;;27.10;65.70;;;;;;10444664;28;20219;-79
2022/08/25 14:02:54;;;;;;;5.43;5.13;;;27.20;65.90;;;;;;10430877;28;20755;-79
2022/08/25 14:07:58;;;;;;;6.43;6.13;;;27.20;66.50;;;;;;10438555;28;20339;-79
2022/08/25 14:13:10;;;;;;;6.90;6.50;;;27.40;64.90;;;;;;10430333;28;20393;-79
2022/08/25 14:18:19;;;;;;;7.43;7.03;;;27.50;65.90;;;;;;10438723;28;20275;-79
2022/08/25 14:23:26;;;;;;;6.10;5.70;;;27.50;65.60;;;;;;10430187;28;20234;-79
2022/08/25 14:28:30;;;;;;;6.40;6.03;;;27.60;64.70;;;;;;10444017;28;20253;-79
2022/08/25 14:33:36;;;;;;;4.77;4.47;;;27.70;63.80;;;;;;10436398;28;20222;-79
2022/08/25 14:38:40;;;;;;;5.73;5.43;;;27.80;64.00;;;;;;10428919;28;20239;-79
2022/08/25 14:43:42;;;;;;;6.43;6.10;;;27.80;63.40;;;;;;10435844;28;20308;-79
2022/08/25 14:48:46;;;;;;;5.70;5.40;;;27.80;63.80;;;;;;10445047;28;20282;-79
2022/08/25 14:53:52;;;;;;;6.53;6.13;;;27.60;65.40;;;;;;10434479;28;20217;-80
2022/08/25 14:58:54;;;;;;;4.93;4.63;;;27.50;65.70;;;;;;10451546;28;20213;-80
2022/08/25 15:04:00;;;;;;;6.30;5.90;;;27.40;67.20;;;;;;10460419;28;20275;-80
2022/08/25 15:09:09;;;;;;;5.20;4.90;;;27.30;66.00;;;;;;10462556;28;20327;-80
2022/08/25 15:14:14;;;;;;;5.50;5.20;;;27.30;65.70;;;;;;10426218;28;20218;-80
2022/08/25 15:19:18;;;;;;;6.13;5.83;;;27.20;66.80;;;;;;10453272;28;20189;-79
2022/08/25 15:24:24;;;;;;;5.63;5.27;;;27.20;66.40;;;;;;10444886;28;20228;-80
2022/08/25 15:29:29;;;;;;;5.73;4.73;;;27.10;67.50;;;;;;10449199;28;20213;-80
2022/08/25 15:34:31;;;;;;;5.80;5.50;;;27.00;68.90;;;;;;10439188;28;20316;-80
2022/08/25 15:39:34;;;;;;;4.80;4.60;;;26.90;68.60;;;;;;10449126;28;20190;-80
2022/08/25 15:44:36;;;;;;;6.33;5.93;;;26.80;69.70;;;;;;10440781;28;20579;-79
2022/08/25 15:49:38;;;;;;;4.50;4.30;;;26.70;69.70;;;;;;10449534;28;20232;-80
2022/08/25 15:54:42;;;;;;;5.83;5.50;;;26.60;71.20;;;;;;10441330;28;20297;-80
2022/08/25 15:59:44;;;;;;;4.57;4.27;;;26.60;71.60;;;;;;10453309;28;20201;-80
2022/08/25 16:04:46;;;;;;;5.30;5.07;;;26.40;70.90;;;;;;10448028;28;20259;-80
2022/08/25 16:09:49;;;;;;;6.50;6.10;;;26.40;72.00;;;;;;10447855;28;20256;-80
2022/08/25 16:14:52;;;;;;;6.03;5.73;;;26.20;72.90;;;;;;10447667;28;20202;-79
2022/08/25 16:19:54;;;;;;;6.73;6.23;;;26.20;70.50;;;;;;10447064;28;20657;-80
2022/08/25 16:24:58;;;;;;;6.93;6.53;;;26.30;71.30;;;;;;10439098;28;20217;-79
2022/08/25 16:30:00;;;;;;;6.30;5.80;;;26.40;71.30;;;;;;10439938;28;20596;-79
2022/08/25 16:35:03;;;;;;;6.23;5.77;;;26.40;71.00;;;;;;10437488;28;20194;-79
2022/08/25 16:40:09;;;;;;;6.03;5.63;;;26.40;71.40;;;;;;10441430;28;20213;-79
2022/08/25 16:45:11;;;;;;;5.70;5.30;;;26.50;71.10;;;;;;10435238;28;20289;-79
2022/08/25 16:50:14;;;;;;;4.60;4.40;;;26.50;71.70;;;;;;10436919;28;20229;-79
2022/08/25 16:55:17;;;;;;;6.37;6.07;;;26.50;70.80;;;;;;10445796;28;20277;-79
2022/08/25 17:00:23;;;;;;;6.33;5.77;;;26.60;71.00;;;;;;10432408;28;20214;-79
2022/08/25 17:05:26;;;;;;;6.47;6.07;;;26.50;70.80;;;;;;10437005;28;20612;-79
2022/08/25 17:10:30;;;;;;;4.97;4.70;;;26.50;70.40;;;;;;10436475;28;20218;-79
2022/08/25 17:15:32;;;;;;;7.13;6.63;;;26.50;70.30;;;;;;10436226;28;20735;-79
2022/08/25 17:20:35;;;;;;;6.20;5.90;;;26.60;69.80;;;;;;10435888;28;20217;-80
2022/08/25 17:25:39;;;;;;;6.50;6.10;;;26.60;69.20;;;;;;10416082;28;20202;-80
2022/08/25 17:30:42;;;;;;;6.20;5.80;;;26.60;69.80;;;;;;10437365;28;20228;-81
2022/08/25 17:35:47;;;;;;;6.20;5.80;;;26.60;69.60;;;;;;10439198;28;20198;-79
2022/08/25 17:40:51;;;;;;;5.40;5.10;;;26.50;70.30;;;;;;10433717;28;20341;-79
2022/08/25 17:45:54;;;;;;;5.90;5.60;;;26.50;70.20;;;;;;10435057;28;20233;-79
2022/08/25 17:50:59;;;;;;;5.37;5.07;;;26.50;70.40;;;;;;10432736;28;20221;-79
2022/08/25 17:56:05;;;;;;;6.30;5.40;;;26.40;70.70;;;;;;10436350;28;20200;-79
2022/08/25 18:01:14;;;;;;;6.13;5.70;;;26.40;70.90;;;;;;10436478;28;20296;-79
2022/08/25 18:06:17;;;;;;;6.70;6.10;;;26.30;71.50;;;;;;10436416;28;20204;-79
2022/08/25 18:11:23;;;;;;;6.50;6.13;;;26.20;71.70;;;;;;10439171;28;20693;-78
2022/08/25 18:16:26;;;;;;;6.03;5.63;;;26.10;72.20;;;;;;10433721;28;20202;-78
2022/08/25 18:21:29;;;;;;;5.43;5.07;;;26.00;72.20;;;;;;10432913;28;20233;-78
2022/08/25 18:26:33;;;;;;;5.70;5.30;;;25.90;72.80;;;;;;10449099;28;20201;-79
2022/08/25 18:31:35;;;;;;;6.40;6.00;;;25.80;72.70;;;;;;10433437;28;20222;-78
2022/08/25 18:36:38;;;;;;;6.00;5.60;;;25.70;72.80;;;;;;10431486;28;20197;-78
2022/08/25 18:41:42;;;;;;;5.00;4.60;;;25.60;73.20;;;;;;10436432;28;20214;-78
2022/08/25 18:46:44;;;;;;;5.57;5.27;;;25.50;72.90;;;;;;10429295;28;20221;-78
2022/08/25 18:51:47;;;;;;;5.80;5.50;;;25.50;73.20;;;;;;10436953;28;20224;-80
2022/08/25 18:56:52;;;;;;;6.20;5.90;;;25.40;73.30;;;;;;10429319;28;20291;-78
2022/08/25 19:01:55;;;;;;;5.73;5.23;;;25.30;73.80;;;;;;10436803;28;20781;-78
2022/08/25 19:06:58;;;;;;;5.93;5.53;;;25.20;74.50;;;;;;10429772;28;20272;-78
2022/08/25 19:12:01;;;;;;;6.10;5.53;;;25.10;74.50;;;;;;10437028;28;20217;-81
2022/08/25 19:17:04;;;;;;;7.37;6.87;;;25.10;75.10;;;;;;10439082;28;20190;-83
2022/08/25 19:22:06;;;;;;;6.73;6.27;;;25.00;75.70;;;;;;10447454;28;20310;-81
2022/08/25 19:27:10;;;;;;;6.23;5.83;;;24.90;75.70;;;;;;10439704;28;20649;-81
2022/08/25 19:32:12;;;;;;;5.67;5.27;;;24.90;76.70;;;;;;10448314;28;20221;-81
2022/08/25 19:37:16;;;;;;;6.20;5.80;;;24.80;78.70;;;;;;10434475;28;20220;-80
2022/08/25 19:42:20;;;;;;;5.97;5.47;;;24.80;78.20;;;;;;10455824;28;20279;-80
2022/08/25 19:47:22;;;;;;;6.17;5.67;;;24.70;79.70;;;;;;10433727;28;20240;-81
2022/08/25 19:52:25;;;;;;;6.10;5.60;;;24.70;77.60;;;;;;10444418;28;20222;-80
2022/08/25 19:57:29;;;;;;;5.93;5.50;;;24.60;76.40;;;;;;10432562;28;20627;-81
2022/08/25 20:02:31;;;;;;;5.40;5.00;;;24.60;77.50;;;;;;10446064;28;20218;-81
2022/08/25 20:07:33;;;;;;;5.50;5.10;;;24.60;78.20;;;;;;10425250;28;20209;-80
2022/08/25 20:12:37;;;;;;;6.53;6.10;;;24.50;78.50;;;;;;10446298;28;20682;-81
2022/08/25 20:17:39;;;;;;;5.60;5.30;;;24.50;77.80;;;;;;10433038;28;20221;-81
2022/08/25 20:22:41;;;;;;;6.20;5.80;;;24.40;78.80;;;;;;10453135;28;20596;-82
2022/08/25 20:27:47;;;;;;;6.10;5.50;;;24.40;78.00;;;;;;10436256;28;20213;-81
2022/08/25 20:32:49;;;;;;;5.43;5.13;;;24.40;77.20;;;;;;10452257;28;20229;-81
2022/08/25 20:37:52;;;;;;;6.30;5.90;;;24.30;77.10;;;;;;10434096;28;20556;-81
2022/08/25 20:42:58;;;;;;;6.27;5.87;;;24.30;76.80;;;;;;10451882;28;20245;-81
2022/08/25 20:48:00;;;;;;;5.90;5.57;;;24.30;76.30;;;;;;10435119;28;20212;-79
2022/08/25 20:53:04;;;;;;;5.77;5.37;;;24.20;76.60;;;;;;10453739;28;20221;-81
2022/08/25 20:58:08;;;;;;;7.17;6.00;;;24.20;76.80;;;;;;10432546;28;20247;-81
2022/08/25 21:03:10;;;;;;;6.27;5.77;;;24.10;77.20;;;;;;10450179;28;20222;-80
2022/08/25 21:08:12;;;;;;;6.33;5.93;;;24.00;77.30;;;;;;10421060;28;20217;-80
2022/08/25 21:13:16;;;;;;;6.10;5.57;;;24.00;78.00;;;;;;10415042;28;20225;-79
2022/08/25 21:18:18;;;;;;;6.40;6.00;;;24.00;78.10;;;;;;10449830;28;20715;-79
2022/08/25 21:23:20;;;;;;;6.57;6.17;;;23.90;78.10;;;;;;10429996;28;20221;-80
2022/08/25 21:28:23;;;;;;;6.33;5.83;;;23.90;78.20;;;;;;10432870;28;20308;-79
2022/08/25 21:33:25;;;;;;;6.20;5.90;;;23.90;79.30;;;;;;10452790;28;20226;-81
2022/08/25 21:38:27;;;;;;;6.30;5.73;;;23.90;81.40;;;;;;10428333;28;20189;-80
2022/08/25 21:43:31;;;;;;;5.80;5.40;;;23.90;81.20;;;;;;10452286;28;20240;-80
2022/08/25 21:48:33;;;;;;;6.27;5.87;;;23.90;79.40;;;;;;10426534;28;20316;-82
2022/08/25 21:53:35;;;;;;;5.57;5.23;;;23.80;79.30;;;;;;10452592;28;20249;-79
2022/08/25 21:58:39;;;;;;;6.07;5.67;;;23.80;79.30;;;;;;10424707;28;20251;-82
2022/08/25 22:03:42;;;;;;;5.87;5.47;;;23.80;79.20;;;;;;10454183;28;20748;-80
2022/08/25 22:08:44;;;;;;;7.23;6.63;;;23.80;79.30;;;;;;10431988;28;20240;-81
2022/08/25 22:13:48;;;;;;;7.63;5.20;;;23.70;79.70;;;;;;10451304;28;20244;-80
2022/08/25 22:18:50;;;;;;;6.50;6.10;;;23.70;79.20;;;;;;10425567;28;20185;-81
2022/08/25 22:23:54;;;;;;;5.70;5.30;;;23.70;79.40;;;;;;10447735;28;20231;-81
2022/08/25 22:28:59;;;;;;;5.73;5.40;;;23.60;79.70;;;;;;10420384;28;20243;-81
2022/08/25 22:34:01;;;;;;;6.60;6.10;;;23.50;79.80;;;;;;10452681;28;20600;-81
2022/08/25 22:39:07;;;;;;;6.10;5.70;;;23.50;79.60;;;;;;10427557;28;20204;-80
2022/08/25 22:44:10;;;;;;;6.57;6.17;;;23.40;79.30;;;;;;10449350;28;20776;-80
2022/08/25 22:49:12;;;;;;;6.60;6.10;;;23.30;79.90;;;;;;10425199;28;20574;-79
2022/08/25 22:54:15;;;;;;;6.67;6.10;;;23.20;80.20;;;;;;10459768;28;20222;-79
2022/08/25 22:59:18;;;;;;;6.23;5.83;;;23.20;80.10;;;;;;10427396;28;20277;-79
2022/08/25 23:04:20;;;;;;;6.03;5.73;;;23.20;79.80;;;;;;10460056;28;20248;-79
2022/08/25 23:09:22;;;;;;;6.20;5.80;;;23.20;80.20;;;;;;10424360;28;20201;-80
2022/08/25 23:14:26;;;;;;;6.33;5.93;;;23.10;79.70;;;;;;10459108;28;20313;-81
2022/08/25 23:19:28;;;;;;;6.13;5.80;;;23.10;80.00;;;;;;10408272;28;20221;-80
2022/08/25 23:24:31;;;;;;;8.83;5.97;;;23.00;80.50;;;;;;10460595;28;20241;-81
2022/08/25 23:29:37;;;;;;;6.83;6.43;;;23.00;80.50;;;;;;10461889;28;20309;-79
2022/08/25 23:34:41;;;;;;;6.40;6.00;;;23.00;80.50;;;;;;10423956;28;20240;-79
2022/08/25 23:39:44;;;;;;;6.20;5.70;;;22.90;80.10;;;;;;10461028;28;20194;-79
2022/08/25 23:44:48;;;;;;;6.03;5.53;;;22.90;80.50;;;;;;10424110;28;20220;-81
2022/08/25 23:49:50;;;;;;;5.80;5.40;;;22.80;80.70;;;;;;10462819;28;20300;-81
2022/08/25 23:54:53;;;;;;;6.20;5.80;;;22.80;80.30;;;;;;10424181;28;20202;-81
2022/08/25 23:59:56;;;;;;;5.60;5.30;;;22.80;81.30;;;;;;10462147;28;20198;-81
